Forest City, NC

4:05 AM EST on November 26, 2014 (GMT -0500)
Forest City-Dunbar Elementary | Change Station
CLOSE
Current Station
Personal Weather Station
Location: Forest City, NC
Elevation: 966 ft
Nearby Weather Stations

Elev 966 ft 35.35 °N, 81.87 °W | Updated 5 minutes ago

Rain
Rain
43.0 °F
Feels Like 43 °F
N
0.0
Wind Variable Wind from NE
Gusts 4.0 mph

Today
High -- | Low -- °F
--% Chance of Precip.
Yesterday
High -- | Low -- °F
Precip. -- in
7:13 AM 5:16 PM
Waxing Crescent, 18% visible
Pressure 29.95 in
Visibility 5.0 miles
Clouds Overcast 7500 ft
Windchill 43 °F
Dew Point 41 °F
Humidity 94%
Rainfall 0.24 in
Snow Depth Not available.
UV 0 out of 12
Pollen 1.80 out of 12
Air Quality Not available.
Flu Activity Not available.
METAR KFQD 260855Z AUTO 03004KT 5SM RA OVC075 06/06 A2995 RMK AO2 P0013 60034 T00630057

More Conditions Fewer Conditions

Pressure 29.95 in
Visibility 5.0 miles
Clouds Overcast 7500 ft
Windchill 43 °F
Dew Point 41 °F
Humidity 94%
Rainfall 0.24 in
Snow Depth Not available.
UV 0 out of 12
Pollen 1.80 out of 12
Air Quality Not available.
Flu Activity Not available.
METAR KFQD 260855Z AUTO 03004KT 5SM RA OVC075 06/06 A2995 RMK AO2 P0013 60034 T00630057

More Conditions Fewer Conditions

10-Day Weather Forecast

Almanac

Astronomy

Nov. 26, 2014 Rise Set
Actual Time
Civil Twilight
Nautical Twilight
Astronomical Twilight
Moon
Length of Visible Light
Length of Day
Tomorrow will be .
, % of the Moon is Illuminated

Today's Extremes

State Highs State Lows

Community

WunderPhotos

Upload Photos

1,773,694 photos uploaded!

WunderBlogs® & News

Nearby

Air Quality

  Air Quality AQ Index Pollutant
Not available.

Snow Depth

Station Depth Elevation

Earthquake Activity

City Distance Mag. Time & Date
Minimum magnitude displayed is 2.5.

Coastal Water Temperatures

Place Temperature

Nearby Weather Stations